sensor_id;sensor_type;location;lat;lon;timestamp;pressure;altitude;pressure_sealevel;temperature;humidity
49945;BME280;35838;49.134;9.212;2024-02-26T00:00:41;98004.75;;;7.28;100.00
49945;BME280;35838;49.134;9.212;2024-02-26T00:02:17;98005.47;;;7.34;100.00
49945;BME280;35838;49.134;9.212;2024-02-26T00:03:48;98008.94;;;7.35;100.00
49945;BME280;35838;49.134;9.212;2024-02-26T00:05:22;97999.44;;;7.35;100.00
49945;BME280;35838;49.134;9.212;2024-02-26T00:06:56;98004.69;;;7.31;100.00
49945;BME280;35838;49.134;9.212;2024-02-26T00:08:31;97988.38;;;7.29;100.00
49945;BME280;35838;49.134;9.212;2024-02-26T00:10:05;97986.63;;;7.31;100.00
49945;BME280;35838;49.134;9.212;2024-02-26T00:11:39;97988.28;;;7.33;100.00
49945;BME280;35838;49.134;9.212;2024-02-26T00:13:10;97990.03;;;7.33;100.00
49945;BME280;35838;49.134;9.212;2024-02-26T00:14:43;97996.94;;;7.31;100.00
49945;BME280;35838;49.134;9.212;2024-02-26T00:16:16;97995.06;;;7.39;100.00
49945;BME280;35838;49.134;9.212;2024-02-26T00:17:50;98003.81;;;7.32;100.00
49945;BME280;35838;49.134;9.212;2024-02-26T00:19:21;98007.31;;;7.29;100.00
49945;BME280;35838;49.134;9.212;2024-02-26T00:20:55;98003.97;;;7.24;100.00
49945;BME280;35838;49.134;9.212;2024-02-26T00:22:28;98013.31;;;7.30;100.00
49945;BME280;35838;49.134;9.212;2024-02-26T00:24:02;97999.59;;;7.28;100.00
49945;BME280;35838;49.134;9.212;2024-02-26T00:25:35;98007.41;;;7.25;100.00
49945;BME280;35838;49.134;9.212;2024-02-26T00:27:09;98006.69;;;7.18;100.00
49945;BME280;35838;49.134;9.212;2024-02-26T00:28:40;98007.53;;;7.18;100.00
49945;BME280;35838;49.134;9.212;2024-02-26T00:30:14;98011.06;;;7.14;100.00
49945;BME280;35838;49.134;9.212;2024-02-26T00:31:45;98014.38;;;7.19;100.00
49945;BME280;35838;49.134;9.212;2024-02-26T00:33:19;98010.13;;;7.17;100.00
49945;BME280;35838;49.134;9.212;2024-02-26T00:34:50;98004.97;;;7.17;100.00
49945;BME280;35838;49.134;9.212;2024-02-26T00:36:23;98007.66;;;7.12;100.00
49945;BME280;35838;49.134;9.212;2024-02-26T00:37:54;97999.78;;;7.18;100.00
49945;BME280;35838;49.134;9.212;2024-02-26T00:39:32;98001.56;;;7.16;100.00
49945;BME280;35838;49.134;9.212;2024-02-26T00:41:03;98004.19;;;7.13;100.00
49945;BME280;35838;49.134;9.212;2024-02-26T00:42:36;98002.59;;;7.09;100.00
49945;BME280;35838;49.134;9.212;2024-02-26T00:44:07;97998.28;;;7.08;100.00
49945;BME280;35838;49.134;9.212;2024-02-26T00:45:42;97999.09;;;7.12;100.00
49945;BME280;35838;49.134;9.212;2024-02-26T00:47:13;97997.41;;;7.09;100.00
49945;BME280;35838;49.134;9.212;2024-02-26T00:48:46;97989.97;;;6.94;100.00
49945;BME280;35838;49.134;9.212;2024-02-26T00:50:17;97993.59;;;6.85;100.00
49945;BME280;35838;49.134;9.212;2024-02-26T00:51:51;97985.72;;;6.91;100.00
49945;BME280;35838;49.134;9.212;2024-02-26T00:53:22;97987.34;;;6.97;100.00
49945;BME280;35838;49.134;9.212;2024-02-26T00:54:58;97993.28;;;7.00;100.00
49945;BME280;35838;49.134;9.212;2024-02-26T00:56:29;97997.53;;;7.03;100.00
49945;BME280;35838;49.134;9.212;2024-02-26T00:58:03;97991.53;;;7.01;100.00
49945;BME280;35838;49.134;9.212;2024-02-26T00:59:34;97988.97;;;7.01;100.00
49945;BME280;35838;49.134;9.212;2024-02-26T01:01:08;97992.38;;;7.03;100.00
49945;BME280;35838;49.134;9.212;2024-02-26T01:02:39;97992.38;;;7.03;100.00
49945;BME280;35838;49.134;9.212;2024-02-26T01:04:13;97988.84;;;7.07;100.00
49945;BME280;35838;49.134;9.212;2024-02-26T01:05:47;97994.13;;;7.01;100.00
49945;BME280;35838;49.134;9.212;2024-02-26T01:07:18;97994.50;;;6.82;100.00
49945;BME280;35838;49.134;9.212;2024-02-26T01:08:52;97991.72;;;6.93;100.00
49945;BME280;35838;49.134;9.212;2024-02-26T01:10:25;97996.78;;;6.98;100.00
49945;BME280;35838;49.134;9.212;2024-02-26T01:11:59;97998.56;;;6.94;100.00
49945;BME280;35838;49.134;9.212;2024-02-26T01:13:30;97993.41;;;6.94;100.00
49945;BME280;35838;49.134;9.212;2024-02-26T01:15:04;97996.88;;;6.93;100.00
49945;BME280;35838;49.134;9.212;2024-02-26T01:16:36;97998.75;;;6.83;100.00
49945;BME280;35838;49.134;9.212;2024-02-26T01:18:10;97994.50;;;6.82;100.00
49945;BME280;35838;49.134;9.212;2024-02-26T01:19:41;98000.50;;;6.83;100.00
49945;BME280;35838;49.134;9.212;2024-02-26T01:21:14;98007.31;;;6.87;100.00
49945;BME280;35838;49.134;9.212;2024-02-26T01:22:45;98009.06;;;6.85;100.00
49945;BME280;35838;49.134;9.212;2024-02-26T01:24:19;98009.97;;;6.82;100.00
49945;BME280;35838;49.134;9.212;2024-02-26T01:25:53;98016.81;;;6.83;100.00
49945;BME280;35838;49.134;9.212;2024-02-26T01:27:26;98012.66;;;6.78;100.00
49945;BME280;35838;49.134;9.212;2024-02-26T01:28:58;98003.31;;;6.70;100.00
49945;BME280;35838;49.134;9.212;2024-02-26T01:30:31;98015.97;;;6.83;100.00
49945;BME280;35838;49.134;9.212;2024-02-26T01:32:03;98014.97;;;6.90;100.00
49945;BME280;35838;49.134;9.212;2024-02-26T01:33:36;98017.47;;;6.95;100.00
49945;BME280;35838;49.134;9.212;2024-02-26T01:35:07;98009.72;;;6.95;100.00
49945;BME280;35838;49.134;9.212;2024-02-26T01:36:42;98016.53;;;6.99;100.00
49945;BME280;35838;49.134;9.212;2024-02-26T01:38:13;98005.44;;;6.95;100.00
49945;BME280;35838;49.134;9.212;2024-02-26T01:39:47;98012.31;;;6.95;100.00
49945;BME280;35838;49.134;9.212;2024-02-26T01:41:20;98020.72;;;7.04;100.00
49945;BME280;35838;49.134;9.212;2024-02-26T01:42:54;98016.50;;;7.00;100.00
49945;BME280;35838;49.134;9.212;2024-02-26T01:44:26;98037.22;;;6.96;100.00
49945;BME280;35838;49.134;9.212;2024-02-26T01:45:59;98035.50;;;6.95;100.00
49945;BME280;35838;49.134;9.212;2024-02-26T01:47:30;98036.56;;;6.84;100.00
49945;BME280;35838;49.134;9.212;2024-02-26T01:49:04;98037.25;;;6.93;100.00
49945;BME280;35838;49.134;9.212;2024-02-26T01:50:38;98043.34;;;6.92;100.00
49945;BME280;35838;49.134;9.212;2024-02-26T01:52:10;98049.38;;;6.90;100.00
49945;BME280;35838;49.134;9.212;2024-02-26T01:53:44;98048.50;;;6.92;100.00
49945;BME280;35838;49.134;9.212;2024-02-26T01:55:15;98051.00;;;6.95;100.00
49945;BME280;35838;49.134;9.212;2024-02-26T01:56:52;98041.50;;;6.97;100.00
49945;BME280;35838;49.134;9.212;2024-02-26T01:58:23;98044.25;;;6.87;100.00
49945;BME280;35838;49.134;9.212;2024-02-26T01:59:57;98044.09;;;6.97;100.00
49945;BME280;35838;49.134;9.212;2024-02-26T02:01:29;98044.00;;;7.01;100.00
49945;BME280;35838;49.134;9.212;2024-02-26T02:03:03;98042.25;;;7.03;100.00
49945;BME280;35838;49.134;9.212;2024-02-26T02:04:34;98030.41;;;6.93;100.00
49945;BME280;35838;49.134;9.212;2024-02-26T02:06:08;98030.44;;;6.92;100.00
49945;BME280;35838;49.134;9.212;2024-02-26T02:07:39;98031.19;;;6.97;100.00
49945;BME280;35838;49.134;9.212;2024-02-26T02:09:14;98030.22;;;7.01;100.00
49945;BME280;35838;49.134;9.212;2024-02-26T02:10:45;98028.44;;;7.06;100.00
49945;BME280;35838;49.134;9.212;2024-02-26T02:12:22;98009.50;;;7.07;100.00
49945;BME280;35838;49.134;9.212;2024-02-26T02:13:53;98008.72;;;7.02;100.00
49945;BME280;35838;49.134;9.212;2024-02-26T02:15:27;98009.50;;;7.07;100.00
49945;BME280;35838;49.134;9.212;2024-02-26T02:16:58;98000.88;;;7.08;100.00
49945;BME280;35838;49.134;9.212;2024-02-26T02:18:31;97996.69;;;7.02;100.00
49945;BME280;35838;49.134;9.212;2024-02-26T02:20:03;97985.44;;;7.05;100.00
49945;BME280;35838;49.134;9.212;2024-02-26T02:21:39;97982.84;;;7.06;100.00
49945;BME280;35838;49.134;9.212;2024-02-26T02:23:10;97981.03;;;7.12;100.00
49945;BME280;35838;49.134;9.212;2024-02-26T02:24:44;97976.06;;;7.02;100.00
49945;BME280;35838;49.134;9.212;2024-02-26T02:26:16;97976.41;;;6.84;100.00
49945;BME280;35838;49.134;9.212;2024-02-26T02:27:49;97991.97;;;6.79;100.00
49945;BME280;35838;49.134;9.212;2024-02-26T02:29:21;97996.03;;;6.91;100.00
49945;BME280;35838;49.134;9.212;2024-02-26T02:30:55;97977.84;;;6.99;100.00
49945;BME280;35838;49.134;9.212;2024-02-26T02:32:27;97978.66;;;7.01;100.00
49945;BME280;35838;49.134;9.212;2024-02-26T02:34:01;97984.63;;;7.04;100.00
49945;BME280;35838;49.134;9.212;2024-02-26T02:35:32;97983.75;;;7.04;100.00
49945;BME280;35838;49.134;9.212;2024-02-26T02:37:08;97998.28;;;7.08;100.00
49945;BME280;35838;49.134;9.212;2024-02-26T02:38:48;98049.84;;;7.10;100.00
49945;BME280;35838;49.134;9.212;2024-02-26T02:40:22;98033.03;;;6.92;100.00
49945;BME280;35838;49.134;9.212;2024-02-26T02:41:53;98030.47;;;6.88;100.00
49945;BME280;35838;49.134;9.212;2024-02-26T02:43:27;98047.53;;;6.96;100.00
49945;BME280;35838;49.134;9.212;2024-02-26T02:44:58;98041.81;;;6.80;100.00
49945;BME280;35838;49.134;9.212;2024-02-26T02:46:32;98042.56;;;6.86;100.00
49945;BME280;35838;49.134;9.212;2024-02-26T02:48:04;98032.41;;;6.79;100.00
49945;BME280;35838;49.134;9.212;2024-02-26T02:49:38;98039.22;;;6.81;100.00
49945;BME280;35838;49.134;9.212;2024-02-26T02:51:09;98052.88;;;6.86;100.00
49945;BME280;35838;49.134;9.212;2024-02-26T02:52:46;98041.56;;;6.94;100.00
49945;BME280;35838;49.134;9.212;2024-02-26T02:54:17;98024.38;;;6.94;100.00
49945;BME280;35838;49.134;9.212;2024-02-26T02:55:50;98032.81;;;7.02;100.00
49945;BME280;35838;49.134;9.212;2024-02-26T02:57:21;98031.78;;;7.10;100.00
49945;BME280;35838;49.134;9.212;2024-02-26T02:58:55;98021.50;;;7.08;100.00
49945;BME280;35838;49.134;9.212;2024-02-26T03:00:26;98034.16;;;7.20;100.00
49945;BME280;35838;49.134;9.212;2024-02-26T03:02:00;98029.16;;;7.13;100.00
49945;BME280;35838;49.134;9.212;2024-02-26T03:03:31;98041.47;;;6.98;100.00
49945;BME280;35838;49.134;9.212;2024-02-26T03:05:05;98037.16;;;6.99;100.00
49945;BME280;35838;49.134;9.212;2024-02-26T03:06:36;98042.44;;;6.93;100.00
49945;BME280;35838;49.134;9.212;2024-02-26T03:08:12;98033.72;;;7.00;100.00
49945;BME280;35838;49.134;9.212;2024-02-26T03:09:43;98056.19;;;6.93;100.00
49945;BME280;35838;49.134;9.212;2024-02-26T03:11:17;98053.56;;;6.96;100.00
49945;BME280;35838;49.134;9.212;2024-02-26T03:12:48;98058.59;;;7.02;100.00
49945;BME280;35838;49.134;9.212;2024-02-26T03:14:21;98065.47;;;7.03;100.00
49945;BME280;35838;49.134;9.212;2024-02-26T03:15:53;98053.53;;;6.98;100.00
49945;BME280;35838;49.134;9.212;2024-02-26T03:17:27;98063.72;;;7.04;100.00
49945;BME280;35838;49.134;9.212;2024-02-26T03:18:58;98069.69;;;7.06;100.00
49945;BME280;35838;49.134;9.212;2024-02-26T03:20:33;98064.53;;;7.06;100.00
49945;BME280;35838;49.134;9.212;2024-02-26T03:22:04;98060.44;;;6.96;100.00
49945;BME280;35838;49.134;9.212;2024-02-26T03:23:41;98067.38;;;6.92;100.00
49945;BME280;35838;49.134;9.212;2024-02-26T03:25:12;98065.72;;;6.89;100.00
49945;BME280;35838;49.134;9.212;2024-02-26T03:26:46;98069.03;;;6.96;100.00
49945;BME280;35838;49.134;9.212;2024-02-26T03:28:17;98067.34;;;6.94;100.00
49945;BME280;35838;49.134;9.212;2024-02-26T03:29:50;98065.63;;;6.93;100.00
49945;BME280;35838;49.134;9.212;2024-02-26T03:31:23;98069.81;;;7.00;100.00
49945;BME280;35838;49.134;9.212;2024-02-26T03:32:56;98062.06;;;7.01;100.00
49945;BME280;35838;49.134;9.212;2024-02-26T03:34:27;98067.88;;;7.11;100.00
49945;BME280;35838;49.134;9.212;2024-02-26T03:36:01;98066.88;;;7.18;100.00
49945;BME280;35838;49.134;9.212;2024-02-26T03:37:32;98072.03;;;7.18;100.00
49945;BME280;35838;49.134;9.212;2024-02-26T03:39:09;98074.72;;;7.12;100.00
49945;BME280;35838;49.134;9.212;2024-02-26T03:40:40;98075.56;;;7.14;100.00
49945;BME280;35838;49.134;9.212;2024-02-26T03:42:14;98073.84;;;7.13;100.00
49945;BME280;35838;49.134;9.212;2024-02-26T03:43:47;98074.69;;;7.15;100.00
49945;BME280;35838;49.134;9.212;2024-02-26T03:45:19;98078.88;;;7.21;100.00
49945;BME280;35838;49.134;9.212;2024-02-26T03:46:52;98073.72;;;7.19;100.00
49945;BME280;35838;49.134;9.212;2024-02-26T03:48:23;98076.38;;;7.16;100.00
49945;BME280;35838;49.134;9.212;2024-02-26T03:49:57;98074.66;;;7.17;100.00
49945;BME280;35838;49.134;9.212;2024-02-26T03:51:29;98071.13;;;7.21;100.00
49945;BME280;35838;49.134;9.212;2024-02-26T03:53:03;98069.34;;;7.23;100.00
49945;BME280;35838;49.134;9.212;2024-02-26T03:54:37;98068.44;;;7.27;100.00
49945;BME280;35838;49.134;9.212;2024-02-26T03:56:11;98065.81;;;7.29;100.00
49945;BME280;35838;49.134;9.212;2024-02-26T03:57:45;98066.50;;;7.37;100.00
49945;BME280;35838;49.134;9.212;2024-02-26T03:59:16;98076.00;;;7.36;100.00
49945;BME280;35838;49.134;9.212;2024-02-26T04:00:50;98066.50;;;7.39;100.00
49945;BME280;35838;49.134;9.212;2024-02-26T04:02:21;98064.09;;;7.29;100.00
49945;BME280;35838;49.134;9.212;2024-02-26T04:03:56;98060.59;;;7.32;100.00
49945;BME280;35838;49.134;9.212;2024-02-26T04:05:27;98058.84;;;7.34;100.00
49945;BME280;35838;49.134;9.212;2024-02-26T04:07:00;98055.28;;;7.38;100.00
49945;BME280;35838;49.134;9.212;2024-02-26T04:08:31;98061.34;;;7.37;100.00
49945;BME280;35838;49.134;9.212;2024-02-26T04:10:11;98060.47;;;7.38;100.00
49945;BME280;35838;49.134;9.212;2024-02-26T04:11:42;98050.97;;;7.40;100.00
49945;BME280;35838;49.134;9.212;2024-02-26T04:13:16;98056.03;;;7.45;100.00
49945;BME280;35838;49.134;9.212;2024-02-26T04:14:50;98050.00;;;7.46;100.00
49945;BME280;35838;49.134;9.212;2024-02-26T04:16:21;98043.03;;;7.49;100.00
49945;BME280;35838;49.134;9.212;2024-02-26T04:17:55;98040.50;;;7.46;100.00
49945;BME280;35838;49.134;9.212;2024-02-26T04:19:29;98036.34;;;7.39;100.00
49945;BME280;35838;49.134;9.212;2024-02-26T04:21:00;98032.91;;;7.40;100.00
49945;BME280;35838;49.134;9.212;2024-02-26T04:22:34;98028.59;;;7.39;100.00
49945;BME280;35838;49.134;9.212;2024-02-26T04:24:05;98029.44;;;7.41;100.00
49945;BME280;35838;49.134;9.212;2024-02-26T04:25:41;98022.63;;;7.37;100.00
49945;BME280;35838;49.134;9.212;2024-02-26T04:27:15;98025.09;;;7.43;100.00
49945;BME280;35838;49.134;9.212;2024-02-26T04:28:46;98035.81;;;7.25;100.00
49945;BME280;35838;49.134;9.212;2024-02-26T04:31:52;98042.03;;;7.14;100.00
49945;BME280;35838;49.134;9.212;2024-02-26T04:33:26;98040.19;;;7.19;100.00
49945;BME280;35838;49.134;9.212;2024-02-26T04:34:57;98040.13;;;7.22;100.00
49945;BME280;35838;49.134;9.212;2024-02-26T04:36:31;98038.38;;;7.25;100.00
49945;BME280;35838;49.134;9.212;2024-02-26T04:38:04;98040.97;;;7.23;100.00
49945;BME280;35838;49.134;9.212;2024-02-26T04:39:35;98037.50;;;7.26;100.00
49945;BME280;35838;49.134;9.212;2024-02-26T04:41:11;98045.16;;;7.29;100.00
49945;BME280;35838;49.134;9.212;2024-02-26T04:42:42;98045.16;;;7.29;100.00
49945;BME280;35838;49.134;9.212;2024-02-26T04:44:16;98044.28;;;7.31;100.00
49945;BME280;35838;49.134;9.212;2024-02-26T04:45:47;98045.25;;;7.26;100.00
49945;BME280;35838;49.134;9.212;2024-02-26T04:47:21;98042.72;;;7.22;100.00
49945;BME280;35838;49.134;9.212;2024-02-26T04:48:52;98046.13;;;7.25;100.00
49945;BME280;35838;49.134;9.212;2024-02-26T04:50:26;98037.59;;;7.19;100.00
49945;BME280;35838;49.134;9.212;2024-02-26T04:51:57;98039.50;;;7.11;100.00
49945;BME280;35838;49.134;9.212;2024-02-26T04:53:31;98031.84;;;7.08;100.00
49945;BME280;35838;49.134;9.212;2024-02-26T04:55:02;98028.53;;;7.01;100.00
49945;BME280;35838;49.134;9.212;2024-02-26T04:56:38;98025.84;;;7.06;100.00
49945;BME280;35838;49.134;9.212;2024-02-26T04:58:09;98026.63;;;7.10;100.00
49945;BME280;35838;49.134;9.212;2024-02-26T04:59:43;98025.81;;;7.08;100.00
49945;BME280;35838;49.134;9.212;2024-02-26T05:01:15;98025.81;;;7.08;100.00
49945;BME280;35838;49.134;9.212;2024-02-26T05:02:49;98020.50;;;7.15;100.00
49945;BME280;35838;49.134;9.212;2024-02-26T05:04:20;98011.13;;;7.11;100.00
49945;BME280;35838;49.134;9.212;2024-02-26T05:05:54;98005.84;;;7.17;100.00
49945;BME280;35838;49.134;9.212;2024-02-26T05:07:24;98010.94;;;7.20;100.00
49945;BME280;35838;49.134;9.212;2024-02-26T05:08:58;98005.75;;;7.22;100.00
49945;BME280;35838;49.134;9.212;2024-02-26T05:10:29;98006.63;;;7.21;100.00
49945;BME280;35838;49.134;9.212;2024-02-26T05:12:06;98007.53;;;7.18;100.00
49945;BME280;35838;49.134;9.212;2024-02-26T05:13:37;98009.16;;;7.22;100.00
49945;BME280;35838;49.134;9.212;2024-02-26T05:15:10;98009.13;;;7.24;100.00
49945;BME280;35838;49.134;9.212;2024-02-26T05:16:42;98009.25;;;7.18;100.00
49945;BME280;35838;49.134;9.212;2024-02-26T05:18:15;98005.72;;;7.24;100.00
49945;BME280;35838;49.134;9.212;2024-02-26T05:19:46;98014.28;;;7.26;100.00
49945;BME280;35838;49.134;9.212;2024-02-26T05:21:20;98010.88;;;7.24;100.00
49945;BME280;35838;49.134;9.212;2024-02-26T05:22:51;98010.00;;;7.25;100.00
49945;BME280;35838;49.134;9.212;2024-02-26T05:24:24;98009.94;;;7.26;100.00
49945;BME280;35838;49.134;9.212;2024-02-26T05:25:55;98021.19;;;7.24;100.00
49945;BME280;35838;49.134;9.212;2024-02-26T05:27:32;98016.88;;;7.24;100.00
49945;BME280;35838;49.134;9.212;2024-02-26T05:29:03;98017.06;;;7.15;100.00
49945;BME280;35838;49.134;9.212;2024-02-26T05:30:36;98010.84;;;7.25;100.00
49945;BME280;35838;49.134;9.212;2024-02-26T05:32:10;98011.75;;;7.22;100.00
49945;BME280;35838;49.134;9.212;2024-02-26T05:33:44;98009.13;;;7.26;100.00
49945;BME280;35838;49.134;9.212;2024-02-26T05:35:18;98009.13;;;7.26;100.00
49945;BME280;35838;49.134;9.212;2024-02-26T05:36:49;98014.38;;;7.19;100.00
49945;BME280;35838;49.134;9.212;2024-02-26T05:38:22;98010.00;;;7.25;100.00
49945;BME280;35838;49.134;9.212;2024-02-26T05:39:53;98007.44;;;7.23;100.00
49945;BME280;35838;49.134;9.212;2024-02-26T05:41:27;98005.94;;;7.11;100.00
49945;BME280;35838;49.134;9.212;2024-02-26T05:43:01;98015.66;;;6.98;100.00
49945;BME280;35838;49.134;9.212;2024-02-26T05:44:34;98022.53;;;6.99;100.00
49945;BME280;35838;49.134;9.212;2024-02-26T05:46:05;98024.16;;;7.05;100.00
49945;BME280;35838;49.134;9.212;2024-02-26T05:47:39;98023.28;;;7.06;100.00
49945;BME280;35838;49.134;9.212;2024-02-26T05:49:13;98020.59;;;7.11;100.00
49945;BME280;35838;49.134;9.212;2024-02-26T05:50:47;98027.31;;;7.18;100.00
49945;BME280;35838;49.134;9.212;2024-02-26T05:52:20;98027.28;;;7.21;100.00
49945;BME280;35838;49.134;9.212;2024-02-26T05:53:51;98023.69;;;7.28;100.00
49945;BME280;35838;49.134;9.212;2024-02-26T05:55:27;98029.66;;;7.30;100.00
49945;BME280;35838;49.134;9.212;2024-02-26T05:56:58;98028.78;;;7.31;100.00
49945;BME280;35838;49.134;9.212;2024-02-26T05:58:34;98029.69;;;7.29;100.00
49945;BME280;35838;49.134;9.212;2024-02-26T06:00:06;98039.34;;;7.19;100.00
49945;BME280;35838;49.134;9.212;2024-02-26T06:01:40;98042.16;;;7.06;100.00
49945;BME280;35838;49.134;9.212;2024-02-26T06:03:11;98051.91;;;6.92;100.00
49945;BME280;35838;49.134;9.212;2024-02-26T06:04:45;98049.38;;;6.90;100.00
49945;BME280;35838;49.134;9.212;2024-02-26T06:06:17;98052.91;;;6.83;100.00
49945;BME280;35838;49.134;9.212;2024-02-26T06:07:52;98059.59;;;6.94;100.00
49945;BME280;35838;49.134;9.212;2024-02-26T06:09:23;98063.75;;;7.02;100.00
49945;BME280;35838;49.134;9.212;2024-02-26T06:10:57;98067.09;;;7.08;100.00
49945;BME280;35838;49.134;9.212;2024-02-26T06:12:28;98067.03;;;7.11;100.00
49945;BME280;35838;49.134;9.212;2024-02-26T06:14:04;98068.56;;;7.19;100.00
49945;BME280;35838;49.134;9.212;2024-02-26T06:15:38;98071.94;;;7.25;100.00
49945;BME280;35838;49.134;9.212;2024-02-26T06:17:09;98075.38;;;7.24;100.00
49945;BME280;35838;49.134;9.212;2024-02-26T06:18:42;98085.66;;;7.25;100.00
49945;BME280;35838;49.134;9.212;2024-02-26T06:20:13;98093.34;;;7.28;100.00
49945;BME280;35838;49.134;9.212;2024-02-26T06:21:47;98100.19;;;7.31;100.00
49945;BME280;35838;49.134;9.212;2024-02-26T06:23:21;98098.47;;;7.30;100.00
49945;BME280;35838;49.134;9.212;2024-02-26T06:24:52;98109.66;;;7.30;100.00
49945;BME280;35838;49.134;9.212;2024-02-26T06:26:26;98123.44;;;7.29;100.00
49945;BME280;35838;49.134;9.212;2024-02-26T06:27:59;98115.72;;;7.28;100.00
49945;BME280;35838;49.134;9.212;2024-02-26T06:29:35;98129.63;;;7.20;100.00
49945;BME280;35838;49.134;9.212;2024-02-26T06:31:06;98126.22;;;7.18;100.00
49945;BME280;35838;49.134;9.212;2024-02-26T06:32:40;98135.75;;;7.15;100.00
49945;BME280;35838;49.134;9.212;2024-02-26T06:34:11;98138.31;;;7.16;100.00
49945;BME280;35838;49.134;9.212;2024-02-26T06:35:45;98136.44;;;7.25;100.00
49945;BME280;35838;49.134;9.212;2024-02-26T06:37:18;98150.19;;;7.25;100.00
49945;BME280;35838;49.134;9.212;2024-02-26T06:38:49;98149.31;;;7.26;100.00
49945;BME280;35838;49.134;9.212;2024-02-26T06:40:24;98145.84;;;7.27;100.00
49945;BME280;35838;49.134;9.212;2024-02-26T06:41:56;98153.53;;;7.29;100.00
49945;BME280;35838;49.134;9.212;2024-02-26T06:43:31;98145.75;;;7.32;100.00
49945;BME280;35838;49.134;9.212;2024-02-26T06:45:05;98141.47;;;7.31;100.00
49945;BME280;35838;49.134;9.212;2024-02-26T06:46:39;98130.31;;;7.29;100.00
49945;BME280;35838;49.134;9.212;2024-02-26T06:48:10;98131.28;;;7.25;100.00
49945;BME280;35838;49.134;9.212;2024-02-26T06:49:43;98120.13;;;7.22;100.00
49945;BME280;35838;49.134;9.212;2024-02-26T06:51:14;98122.00;;;7.14;100.00
49945;BME280;35838;49.134;9.212;2024-02-26T06:52:48;98114.09;;;7.24;100.00
49945;BME280;35838;49.134;9.212;2024-02-26T06:54:19;98114.13;;;7.20;100.00
49945;BME280;35838;49.134;9.212;2024-02-26T06:55:53;98107.28;;;7.19;100.00
49945;BME280;35838;49.134;9.212;2024-02-26T06:57:24;98112.44;;;7.19;100.00
49945;BME280;35838;49.134;9.212;2024-02-26T06:58:57;98114.13;;;7.20;100.00
49945;BME280;35838;49.134;9.212;2024-02-26T07:00:31;98116.72;;;7.20;100.00
49945;BME280;35838;49.134;9.212;2024-02-26T07:02:05;98123.44;;;7.28;100.00
49945;BME280;35838;49.134;9.212;2024-02-26T07:03:36;98130.31;;;7.29;100.00
49945;BME280;35838;49.134;9.212;2024-02-26T07:05:09;98129.34;;;7.36;100.00
49945;BME280;35838;49.134;9.212;2024-02-26T07:06:40;98132.75;;;7.36;100.00
49945;BME280;35838;49.134;9.212;2024-02-26T07:08:17;98136.13;;;7.40;100.00
49945;BME280;35838;49.134;9.212;2024-02-26T07:09:48;98137.84;;;7.41;100.00
49945;BME280;35838;49.134;9.212;2024-02-26T07:11:22;98140.41;;;7.41;100.00
49945;BME280;35838;49.134;9.212;2024-02-26T07:12:53;98140.72;;;7.24;100.00
49945;BME280;35838;49.134;9.212;2024-02-26T07:14:26;98135.75;;;7.15;100.00
49945;BME280;35838;49.134;9.212;2024-02-26T07:16:00;98142.69;;;7.11;100.00
49945;BME280;35838;49.134;9.212;2024-02-26T07:17:34;98140.06;;;7.14;100.00
49945;BME280;35838;49.134;9.212;2024-02-26T07:19:05;98140.91;;;7.15;100.00
49945;BME280;35838;49.134;9.212;2024-02-26T07:20:38;98148.69;;;7.13;100.00
49945;BME280;35838;49.134;9.212;2024-02-26T07:22:09;98148.91;;;6.99;100.00
49945;BME280;35838;49.134;9.212;2024-02-26T07:23:44;98148.03;;;7.00;100.00
49945;BME280;35838;49.134;9.212;2024-02-26T07:25:15;98138.47;;;7.07;100.00
49945;BME280;35838;49.134;9.212;2024-02-26T07:26:49;98148.72;;;7.12;100.00
49945;BME280;35838;49.134;9.212;2024-02-26T07:28:20;98152.97;;;7.14;100.00
49945;BME280;35838;49.134;9.212;2024-02-26T07:29:53;98153.63;;;7.26;100.00
49945;BME280;35838;49.134;9.212;2024-02-26T07:31:27;98151.84;;;7.29;100.00
49945;BME280;35838;49.134;9.212;2024-02-26T07:33:00;98158.69;;;7.30;100.00
49945;BME280;35838;49.134;9.212;2024-02-26T07:34:31;98160.13;;;7.45;100.00
49945;BME280;35838;49.134;9.212;2024-02-26T07:36:06;98160.97;;;7.46;100.00
49945;BME280;35838;49.134;9.212;2024-02-26T07:37:37;98162.56;;;7.53;100.00
49945;BME280;35838;49.134;9.212;2024-02-26T07:39:11;98169.34;;;7.59;100.00
49945;BME280;35838;49.134;9.212;2024-02-26T07:40:44;98170.25;;;7.56;100.00
49945;BME280;35838;49.134;9.212;2024-02-26T07:42:15;98174.47;;;7.60;100.00
49945;BME280;35838;49.134;9.212;2024-02-26T07:43:50;98169.97;;;7.70;100.00
49945;BME280;35838;49.134;9.212;2024-02-26T07:45:21;98174.16;;;7.76;100.00
49945;BME280;35838;49.134;9.212;2024-02-26T07:46:57;98170.78;;;7.74;100.00
49945;BME280;35838;49.134;9.212;2024-02-26T07:48:28;98172.47;;;7.73;100.00
49945;BME280;35838;49.134;9.212;2024-02-26T07:50:02;98177.22;;;7.52;100.00
49945;BME280;35838;49.134;9.212;2024-02-26T07:51:33;98176.25;;;7.57;100.00
49945;BME280;35838;49.134;9.212;2024-02-26T07:53:07;98174.72;;;7.48;100.00
49945;BME280;35838;49.134;9.212;2024-02-26T07:54:38;98169.69;;;7.40;100.00
49945;BME280;35838;49.134;9.212;2024-02-26T07:56:12;98179.78;;;7.52;100.00
49945;BME280;35838;49.134;9.212;2024-02-26T07:57:43;98177.09;;;7.59;100.00
49945;BME280;35838;49.134;9.212;2024-02-26T07:59:16;98178.66;;;7.66;100.00
49945;BME280;35838;49.134;9.212;2024-02-26T08:00:47;98182.03;;;7.71;100.00
49945;BME280;35838;49.134;9.212;2024-02-26T08:02:24;98177.72;;;7.70;100.00
49945;BME280;35838;49.134;9.212;2024-02-26T08:03:55;98173.31;;;7.75;100.00
49945;BME280;35838;49.134;9.212;2024-02-26T08:05:29;98184.28;;;7.85;100.00
49945;BME280;35838;49.134;9.212;2024-02-26T08:07:00;98183.34;;;7.89;100.00
49945;BME280;35838;49.134;9.212;2024-02-26T08:08:33;98178.16;;;7.91;100.00
49945;BME280;35838;49.134;9.212;2024-02-26T08:10:05;98189.25;;;7.96;100.00
49945;BME280;35838;49.134;9.212;2024-02-26T08:11:38;98186.53;;;8.02;100.00
49945;BME280;35838;49.134;9.212;2024-02-26T08:13:09;98186.47;;;8.05;100.00